Latest Weather Observations for Hamilton Island

IDQ60801

Issued at 3:32 pm EST Saturday 1 August 2015 (issued every 30 minutes, with the page automatically refreshed every 10 minutes)

About weather observations | Map of weather stations | Latest weather observations for QLD | Other Formats
Station Details ID: 033106 Name: HAMILTON ISLAND AIRPORT Lat: -20.37 Lon: 148.95 Height: 58.66 m
Data from the previous 72 hours. | See also: Recent months at Hamilton Island
Date/Time
EST
Temp
°C
App
Temp
°C
Dew
Point
Rel
Hum
%
Delta-T
°C
Wind Press
QNH
hPa
Press
MSL
hPa
Rain
since 9 am
mm
Dir
 
Spd
km/h
Gust
km/h
Spd
kts
Gust
kts
01/03:30pm 20.7 17.5 16.3 76 2.6 SSE 28 33 15 18 1019.7 - 0.0
01/03:00pm 20.7 17.5 16.3 76 2.6 SSE 28 33 15 18 1019.9 1019.7 0.0
01/02:30pm 21.1 18.4 16.7 76 2.7 SSE 26 32 14 17 1020.0 - 0.0
01/02:00pm 20.9 18.1 16.3 75 2.8 SSE 26 32 14 17 1020.3 - 0.0
01/01:30pm 21.4 19.1 16.6 74 2.9 SSE 24 28 13 15 1020.9 - 0.0
01/01:00pm 21.1 18.7 16.3 74 2.9 SSE 24 30 13 16 1021.3 - 0.0
01/12:30pm 21.3 19.3 16.5 74 2.9 SSE 22 30 12 16 1021.7 - 0.0
01/12:00pm 21.4 19.1 16.6 74 2.9 SSE 24 30 13 16 1022.1 1021.9 0.0
01/11:30am 21.3 19.0 16.7 75 2.8 SSE 24 32 13 17 1022.4 - 0.0
01/11:00am 21.1 18.8 16.7 76 2.7 SSE 24 32 13 17 1022.7 - 0.0
01/10:30am 21.3 19.1 16.9 76 2.7 SSE 24 32 13 17 1022.8 - 0.0
01/10:00am 21.0 18.4 16.8 77 2.6 SSE 26 33 14 18 1023.0 - 0.0
01/09:30am 21.0 18.8 17.0 78 2.4 SSE 24 32 13 17 1022.8 - 0.0
01/09:00am 20.5 18.2 16.7 79 2.3 S 24 33 13 18 1022.7 1022.5 0.0
01/08:30am 20.7 18.4 16.7 78 2.4 SSE 24 32 13 17 1022.5 - 0.0
01/08:00am 20.3 17.5 16.3 78 2.4 SSE 26 32 14 17 1022.3 - 0.0
01/07:30am 20.8 17.4 14.7 68 3.6 SE 26 30 14 16 1022.0 - 0.0
01/07:00am 20.1 16.6 14.5 70 3.3 SE 26 32 14 17 1021.9 - 0.0
01/06:00am 20.0 15.5 13.9 68 3.5 ESE 30 35 16 19 1021.1 1020.9 0.0
01/05:30am 20.1 15.4 14.2 69 3.4 ESE 32 37 17 20 1020.8 - 0.0
01/05:00am 20.1 15.2 13.8 67 3.6 ESE 32 37 17 20 1020.5 - 0.0
01/04:30am 20.1 15.7 14.2 69 3.4 ESE 30 37 16 20 1020.2 - 0.0
01/04:00am 20.2 16.2 15.2 73 3.0 ESE 30 37 16 20 1020.1 - 0.0
01/03:30am 20.1 15.2 14.2 69 3.4 ESE 33 39 18 21 1020.0 - 0.0
01/03:00am 20.0 15.3 14.4 70 3.3 ESE 32 37 17 20 1020.1 1019.9 0.0
01/02:30am 20.0 15.5 14.8 72 3.0 ESE 32 35 17 19 1020.2 - 0.0
01/02:00am 20.1 15.7 15.1 73 2.9 ESE 32 37 17 20 1020.5 - 0.0
01/01:30am 20.1 16.1 15.3 74 2.8 ESE 30 35 16 19 1020.6 - 0.0
01/01:00am 20.0 15.9 15.0 73 2.9 ESE 30 35 16 19 1020.8 - 0.0
01/12:30am 20.0 15.4 15.0 73 2.9 ESE 33 35 18 19 1021.2 - 0.0
01/12:00am 20.1 15.7 15.7 76 2.6 ESE 33 39 18 21 1021.1 1020.9 0.0
 
Date/Time
EST
Temp
°C
App
Temp
°C
Dew
Point
Rel
Hum
%
Delta-T
°C
Wind Press
QNH
hPa
Press
MSL
hPa
Rain
since 9 am
mm
Dir
 
Spd
km/h
Gust
km/h
Spd
kts
Gust
kts
31/11:30pm 19.9 15.9 16.2 79 2.2 ESE 32 35 17 19 1021.1 - 0.0
31/11:00pm 19.9 15.9 16.3 80 2.2 ESE 32 35 17 19 1021.3 - 0.0
31/10:30pm 20.0 15.7 16.0 78 2.4 ESE 33 39 18 21 1021.3 - 0.0
31/10:00pm 20.0 15.8 15.8 77 2.5 ESE 32 37 17 20 1021.3 - 0.0
31/09:30pm 19.6 16.6 16.8 84 1.7 SE 28 32 15 17 1021.4 - 0.0
31/09:00pm 19.7 16.0 16.9 84 1.7 SE 32 35 17 19 1021.3 1021.1 0.0
31/08:30pm 19.6 15.9 17.0 85 1.6 SE 32 35 17 19 1021.3 - 0.0
31/08:00pm 19.7 15.9 16.7 83 1.8 ESE 32 39 17 21 1021.1 - 0.0
31/07:30pm 19.7 16.0 16.0 79 2.2 SE 30 33 16 18 1020.7 - 0.0
31/07:00pm 19.6 15.5 16.4 82 1.9 SE 33 39 18 21 1020.2 - 0.0
31/06:30pm 19.5 15.0 16.5 83 1.8 SE 35 43 19 23 1020.0 - 0.0
31/06:00pm 19.7 14.7 16.0 79 2.2 SE 37 41 20 22 1019.8 1019.6 0.0
31/05:30pm 19.9 15.3 16.2 79 2.2 SE 35 41 19 22 1019.5 - 0.0
31/05:00pm 20.0 15.0 16.0 78 2.4 SE 37 43 20 23 1019.6 - 0.0
31/04:30pm 20.1 15.2 16.3 79 2.3 SE 37 43 20 23 1019.4 - 0.0
31/04:00pm 20.3 15.7 16.1 77 2.5 SE 35 41 19 22 1019.4 - 0.0
31/03:30pm 20.5 16.3 16.3 77 2.5 SE 33 39 18 21 1019.5 - 0.0
31/03:00pm 21.0 17.2 16.8 77 2.6 SE 32 39 17 21 1019.7 1019.5 0.0
31/02:30pm 20.2 16.0 17.2 83 1.8 SSE 35 39 19 21 1020.0 - 0.0
31/02:00pm 20.4 15.8 17.0 81 2.1 SSE 37 43 20 23 1020.3 - 0.0
31/01:30pm 20.4 15.3 16.8 80 2.2 SSE 39 46 21 25 1020.8 - 0.0
31/01:00pm 20.5 15.7 16.7 79 2.3 SSE 37 41 20 22 1021.3 - 0.0
31/12:30pm 20.5 15.7 16.5 78 2.4 SSE 37 43 20 23 1021.7 - 0.0
31/12:00pm 20.3 15.8 16.5 79 2.3 SSE 35 41 19 22 1022.4 1022.2 0.0
31/11:30am 20.5 16.4 16.5 78 2.4 SSE 33 39 18 21 1022.8 - 0.0
31/11:00am 20.3 16.3 16.7 80 2.2 SSE 33 41 18 22 1023.0 - 0.0
31/10:41am 20.2 16.4 16.6 80 2.2 SSE 32 39 17 21 1023.0 - 0.0
31/10:30am 19.8 16.3 16.6 82 1.9 SSE 30 35 16 19 1023.1 - 0.0
31/10:00am 19.9 16.4 16.5 81 2.1 SSE 30 37 16 20 1023.3 - 0.0
31/09:40am 19.9 16.8 16.5 81 2.1 SSE 28 35 15 19 1023.2 - 0.0
31/09:39am 19.9 16.8 16.5 81 2.1 SSE 28 35 15 19 1023.2 - 0.0
31/09:30am 19.8 16.4 16.8 83 1.8 SSE 30 35 16 19 1023.1 - 0.0
31/09:16am 19.4 15.4 16.8 85 1.6 SSE 33 39 18 21 1023.0 - 0.0
31/09:00am 19.8 16.1 17.0 84 1.7 SSE 32 41 17 22 1022.9 1022.7 0.0
31/08:30am 19.1 15.2 16.5 85 1.6 SSE 32 39 17 21 1022.8 - 0.0
31/08:00am 19.1 15.2 16.5 85 1.6 SSE 32 39 17 21 1022.3 - 0.0
31/07:30am 19.1 15.4 16.9 87 1.3 SSE 32 37 17 20 1022.1 - 0.0
31/07:00am 18.9 15.9 16.7 87 1.3 SSE 28 33 15 18 1021.7 - 0.0
31/06:30am 18.6 15.8 16.4 87 1.3 SSE 26 33 14 18 1021.2 - 0.0
31/06:00am 18.5 15.4 16.5 88 1.2 SSE 28 33 15 18 1021.0 1020.8 0.0
31/05:30am 18.5 15.4 16.5 88 1.2 SSE 28 35 15 19 1021.0 - 0.0
31/05:00am 18.5 15.5 16.8 90 1.0 SSE 28 33 15 18 1020.8 - 0.0
31/04:30am 18.7 15.7 16.7 88 1.2 S 28 35 15 19 1021.0 - 0.0
31/04:12am 18.7 15.3 16.7 88 1.2 S 30 39 16 21 1021.1 - 0.0
31/04:00am 18.6 15.1 16.6 88 1.2 S 30 39 16 21 1021.1 - 0.0
31/03:59am 18.7 15.7 16.7 88 1.2 S 28 35 15 19 1021.2 - 0.0
31/03:49am 18.8 15.8 16.8 88 1.2 S 28 35 15 19 1021.4 - 0.0
31/03:30am 19.0 16.0 16.8 87 1.3 S 28 37 15 20 1021.5 - 0.0
31/03:00am 19.0 16.1 17.1 89 1.2 SSE 28 35 15 19 1021.4 1021.2 0.0
31/02:47am 19.1 15.6 17.4 90 1.0 SSE 32 39 17 21 1021.4 - 0.0
31/02:30am 19.1 15.5 17.2 89 1.2 SSE 32 37 17 20 1021.3 - 0.0
31/02:13am 19.4 15.2 16.2 82 1.9 SE 33 41 18 22 1021.3 - 0.0
31/02:00am 19.2 15.5 17.5 90 1.0 SSE 33 41 18 22 1021.4 - 0.0
31/01:30am 19.2 15.3 17.0 87 1.3 SSE 33 43 18 23 1021.8 - 0.0
31/01:00am 19.2 15.4 16.8 86 1.5 SSE 32 41 17 22 1022.2 - 0.0
31/12:53am 19.3 15.7 17.1 87 1.3 SSE 32 37 17 20 1022.3 - 0.0
31/12:30am 19.5 14.6 16.3 82 1.9 SSE 37 44 20 24 1022.4 - 0.0
31/12:00am 19.6 14.2 16.1 80 2.1 SSE 39 44 21 24 1022.7 1022.5 0.0
 
Date/Time
EST
Temp
°C
App
Temp
°C
Dew
Point
Rel
Hum
%
Delta-T
°C
Wind Press
QNH
hPa
Press
MSL
hPa
Rain
since 9 am
mm
Dir
 
Spd
km/h
Gust
km/h
Spd
kts
Gust
kts
30/11:30pm 19.6 14.3 16.3 81 2.0 SSE 39 44 21 24 1022.8 - 0.0
30/11:27pm 19.7 14.8 16.3 81 2.0 SSE 37 44 20 24 1022.9 - 0.0
30/11:17pm 19.7 15.2 16.5 82 1.9 SSE 35 43 19 23 1022.9 - 0.0
30/11:13pm 19.7 14.9 16.7 83 1.8 SSE 37 43 20 23 1023.0 - 0.0
30/11:00pm 19.5 14.7 16.5 83 1.8 SSE 37 43 20 23 1022.9 - 0.0
30/10:51pm 19.6 15.0 17.0 85 1.6 SSE 37 43 20 23 1023.1 - 0.0
30/10:30pm 19.7 15.8 16.9 84 1.7 SSE 33 39 18 21 1023.4 - 0.0
30/10:00pm 19.6 15.2 16.6 83 1.8 SSE 35 41 19 22 1023.3 - 0.0
30/09:53pm 19.6 14.7 16.4 82 1.9 SSE 37 43 20 23 1023.2 - 0.0
30/09:30pm 19.6 14.7 17.2 86 1.5 SSE 39 43 21 23 1023.1 - 0.0
30/09:00pm 19.6 15.5 17.4 87 1.3 SSE 35 43 19 23 1022.9 1022.7 0.0
30/08:30pm 19.6 15.5 17.4 87 1.3 SSE 35 43 19 23 1022.8 - 0.0
30/08:13pm 19.5 14.8 16.9 85 1.6 SSE 37 43 20 23 1022.6 - 0.0
30/08:00pm 19.5 14.6 17.3 87 1.3 SSE 39 44 21 24 1022.4 - 0.0
30/07:48pm 19.5 14.1 17.1 86 1.5 SSE 41 46 22 25 1022.3 - 0.0
30/07:30pm 19.4 14.4 17.0 86 1.5 SSE 39 44 21 24 1022.3 - 0.0
30/07:22pm 19.4 15.1 17.0 86 1.5 SSE 35 43 19 23 1022.2 - 0.0
30/07:00pm 19.4 15.4 16.8 85 1.6 SSE 33 39 18 21 1022.1 - 0.0
30/06:30pm 19.3 15.1 15.8 80 2.1 SSE 32 41 17 22 1021.9 - 0.0
30/06:00pm 19.3 15.1 15.8 80 2.1 SSE 32 37 17 20 1022.1 1021.9 0.0
30/05:35pm 19.8 15.4 16.6 82 1.9 SE 35 43 19 23 1021.8 - 0.0
30/05:30pm 19.7 14.8 16.3 81 2.0 SSE 37 43 20 23 1021.6 - 0.0
30/05:00pm 19.3 14.2 16.7 85 1.6 SSE 39 46 21 25 1021.3 - 0.0
30/04:58pm 19.4 14.3 16.8 85 1.6 SSE 39 44 21 24 1021.3 - 0.0
30/04:30pm 19.4 14.2 16.6 84 1.7 SSE 39 46 21 25 1021.3 - 0.0
30/04:00pm 19.4 13.5 16.6 84 1.7 SSE 43 46 23 25 1021.3 - 0.0
30/03:30pm 19.5 13.6 16.7 84 1.7 SSE 43 48 23 26 1021.3 - 0.0
30/03:00pm 19.6 15.1 16.4 82 1.9 SSE 35 43 19 23 1021.3 1021.1 0.0
30/02:30pm 19.9 15.4 16.5 81 2.1 SSE 35 41 19 22 1021.6 - 0.0
30/02:00pm 20.0 14.4 16.6 81 2.1 SSE 41 46 22 25 1021.8 - 0.0
30/01:30pm 20.2 15.0 16.6 80 2.2 SSE 39 44 21 24 1022.0 - 0.0
30/01:00pm 19.9 13.9 16.5 81 2.1 SSE 43 50 23 27 1022.0 - 0.0
30/12:30pm 19.9 13.8 16.2 79 2.2 SSE 43 48 23 26 1022.7 - 0.0
30/12:05pm 19.5 13.4 16.2 81 2.0 SSE 43 48 23 26 1023.3 - 0.0
30/12:00pm 19.9 14.0 16.7 82 1.9 SSE 43 50 23 27 1023.2 1023.0 0.0
30/11:30am 19.3 14.0 16.3 83 1.8 SSE 39 50 21 27 1023.5 - 0.0
30/11:00am 19.0 13.2 16.0 83 1.8 SSE 41 50 22 27 1023.8 - 0.0
30/10:30am 19.1 13.3 16.1 83 1.8 SSE 41 50 22 27 1024.2 - 0.0
30/10:00am 18.7 13.3 16.1 85 1.6 SSE 39 50 21 27 1024.4 - 0.0
30/09:30am 18.6 12.5 16.2 86 1.4 SSE 43 52 23 28 1024.4 - 0.0
30/09:00am 18.5 12.4 16.1 86 1.4 SSE 43 52 23 28 1024.1 1023.9 0.4
30/08:30am 18.6 12.6 16.4 87 1.3 SSE 43 57 23 31 1023.7 - 0.4
30/08:25am 18.8 14.0 16.6 87 1.3 SSE 37 57 20 31 1023.6 - 0.4
30/08:00am 18.2 12.3 15.8 86 1.4 SSE 41 50 22 27 1023.6 - 0.4
30/07:30am 18.5 14.0 16.3 87 1.3 SSE 35 44 19 24 1023.3 - 0.4
30/07:00am 18.5 13.3 16.5 88 1.2 SSE 39 50 21 27 1023.0 - 0.4
30/06:30am 18.4 12.8 16.4 88 1.2 SSE 41 48 22 26 1022.7 - 0.4
30/06:00am 18.3 13.1 16.5 89 1.1 SSE 39 46 21 25 1022.6 1022.4 0.4
30/05:30am 18.1 12.4 16.3 89 1.1 SSE 41 54 22 29 1022.4 - 0.4
30/05:00am 18.4 12.8 16.6 89 1.1 SSE 41 50 22 27 1022.3 - 0.4
30/04:30am 18.2 13.1 16.7 91 0.9 SSE 39 50 21 27 1022.3 - 0.4
30/04:25am 18.2 13.4 16.7 91 0.9 SSE 37 50 20 27 1022.3 - 0.4
30/04:24am 18.2 13.4 16.7 91 0.9 SSE 37 50 20 27 1022.3 - 0.4
30/04:00am 18.4 12.8 16.4 88 1.2 SSE 41 48 22 26 1022.3 - 0.0
30/03:38am 18.4 13.6 16.6 89 1.1 SSE 37 48 20 26 1022.5 - 0.0
30/03:30am 18.4 13.9 16.4 88 1.2 SSE 35 44 19 24 1022.5 - 0.0
30/03:11am 18.6 13.9 16.8 89 1.1 SSE 37 44 20 24 1022.6 - 0.0
30/03:00am 18.6 13.8 16.6 88 1.2 SSE 37 46 20 25 1022.6 1022.4 0.0
30/02:56am 18.6 14.3 16.8 89 1.1 SSE 35 43 19 23 1022.6 - 0.0
30/02:30am 18.8 14.0 16.6 87 1.3 SSE 37 46 20 25 1022.8 - 0.0
30/02:00am 19.7 13.6 16.3 81 2.0 SE 43 50 23 27 1023.2 - 0.0
30/01:30am 20.0 14.3 15.2 74 2.8 SE 39 46 21 25 1023.6 - 0.0
30/01:00am 20.1 14.4 15.1 73 2.9 SE 39 44 21 24 1023.9 - 0.0
30/12:30am 20.0 15.0 15.0 73 2.9 SE 35 41 19 22 1024.2 - 0.0
30/12:00am 19.9 15.5 15.7 77 2.5 SE 33 41 18 22 1024.5 1024.3 0.0
 
Date/Time
EST
Temp
°C
App
Temp
°C
Dew
Point
Rel
Hum
%
Delta-T
°C
Wind Press
QNH
hPa
Press
MSL
hPa
Rain
since 9 am
mm
Dir
 
Spd
km/h
Gust
km/h
Spd
kts
Gust
kts
29/11:30pm 19.5 15.6 16.9 85 1.6 SSE 33 41 18 22 1024.6 - 0.0
29/11:00pm 19.6 14.7 16.3 81 2.0 SE 37 44 20 24 1024.6 - 0.0
29/10:30pm 19.7 14.8 16.3 81 2.0 SE 37 43 20 23 1025.0 - 0.0
29/10:00pm 19.6 14.2 15.9 79 2.2 SE 39 46 21 25 1025.1 - 0.0
29/09:30pm 19.7 13.5 15.8 78 2.3 SE 43 48 23 26 1025.1 - 0.0
29/09:00pm 19.6 13.2 15.9 79 2.2 SE 44 54 24 29 1025.2 1025.0 0.0
29/08:30pm 19.7 13.0 16.0 79 2.2 SE 46 54 25 29 1025.2 - 0.0
29/08:00pm 19.8 12.6 15.7 77 2.4 SE 48 56 26 30 1024.9 - 0.0
29/07:30pm 19.9 13.2 16.0 78 2.3 SE 46 56 25 30 1024.7 - 0.0
29/07:00pm 19.8 13.6 16.3 80 2.1 SE 44 50 24 27 1024.3 - 0.0
29/06:30pm 19.8 12.3 16.1 79 2.2 SE 50 59 27 32 1023.9 - 0.0
29/06:00pm 19.6 12.5 16.1 80 2.1 SE 48 56 26 30 1023.6 1023.4 0.0
29/05:30pm 19.7 12.3 16.3 81 2.0 SE 50 57 27 31 1023.3 - 0.0
29/05:00pm 19.9 13.2 16.2 79 2.2 SE 46 54 25 29 1023.4 - 0.0
29/04:30pm 19.9 13.0 15.5 76 2.6 SE 46 56 25 30 1023.1 - 0.0
29/04:00pm 20.0 12.8 15.8 77 2.5 SE 48 57 26 31 1022.9 - 0.0

Other Formats:

Comma delimited format used in spreadsheet applications
http://www.bom.gov.au/fwo/IDQ60801/IDQ60801.94368.axf

JavaScript Object Notation format (JSON) in row-major order
http://www.bom.gov.au/fwo/IDQ60801/IDQ60801.94368.json